createdAt,value
2022-09-13T00:01:26.007Z,16.37
2022-09-13T00:03:55.817Z,16.42
2022-09-13T00:06:24.605Z,16.34
2022-09-13T00:08:54.227Z,16.42
2022-09-13T00:11:24.894Z,16.27
2022-09-13T00:13:55.506Z,16.24
2022-09-13T00:16:27.133Z,16.16
2022-09-13T00:18:57.626Z,16.21
2022-09-13T00:21:28.123Z,16.00
2022-09-13T00:23:57.248Z,16.02
2022-09-13T00:26:27.330Z,16.12
2022-09-13T00:28:59.337Z,16.17
2022-09-13T00:31:29.712Z,16.14
2022-09-13T00:34:00.176Z,16.05
2022-09-13T00:36:28.790Z,16.16
2022-09-13T00:38:57.056Z,16.04
2022-09-13T00:41:25.854Z,16.04
2022-09-13T00:43:58.726Z,16.19
2022-09-13T00:46:33.887Z,16.47
2022-09-13T00:49:13.037Z,16.18
2022-09-13T00:51:44.976Z,16.11
2022-09-13T00:54:16.612Z,16.03
2022-09-13T00:56:49.512Z,16.15
2022-09-13T00:59:24.446Z,15.77
2022-09-13T01:01:56.570Z,15.76
2022-09-13T01:04:28.380Z,15.80
2022-09-13T01:07:00.818Z,15.73
2022-09-13T01:09:29.956Z,15.63
2022-09-13T01:12:04.927Z,15.58
2022-09-13T01:14:35.524Z,15.41
2022-09-13T01:17:04.506Z,15.41
2022-09-13T01:19:33.572Z,15.52
2022-09-13T01:22:22.815Z,15.36
2022-09-13T01:25:16.432Z,15.38
2022-09-13T01:28:10.295Z,15.42
2022-09-13T01:30:45.632Z,15.49
2022-09-13T01:33:45.607Z,15.43
2022-09-13T01:36:40.520Z,15.39
2022-09-13T01:39:16.235Z,15.61
2022-09-13T01:42:01.999Z,15.69
2022-09-13T01:44:43.106Z,15.60
2022-09-13T01:47:25.938Z,15.34
2022-09-13T01:50:07.706Z,15.33
2022-09-13T01:52:44.126Z,15.17
2022-09-13T01:55:23.484Z,15.13
2022-09-13T01:57:58.857Z,15.00
2022-09-13T02:00:30.925Z,14.99
2022-09-13T02:03:07.305Z,15.24
2022-09-13T02:05:42.195Z,15.20
2022-09-13T02:08:14.973Z,15.05
2022-09-13T02:10:50.181Z,15.22
2022-09-13T02:13:23.480Z,15.19
2022-09-13T02:15:56.055Z,14.87
2022-09-13T02:18:33.579Z,14.76
2022-09-13T02:21:09.248Z,14.66
2022-09-13T02:23:42.925Z,14.67
2022-09-13T02:26:14.176Z,14.81
2022-09-13T02:28:48.395Z,14.91
2022-09-13T02:31:25.660Z,14.88
2022-09-13T02:34:00.889Z,14.85
2022-09-13T02:36:34.039Z,14.99
2022-09-13T02:39:06.644Z,14.76
2022-09-13T02:41:48.817Z,14.69
2022-09-13T02:44:27.537Z,14.75
2022-09-13T02:47:08.342Z,14.80
2022-09-13T02:49:51.797Z,14.67
2022-09-13T02:52:30.806Z,14.73
2022-09-13T02:55:06.979Z,14.94
2022-09-13T02:57:40.735Z,14.98
2022-09-13T03:00:10.914Z,14.98
2022-09-13T03:02:43.018Z,14.91
2022-09-13T03:05:13.614Z,14.90
2022-09-13T03:07:41.836Z,14.73
2022-09-13T03:10:14.398Z,14.75
2022-09-13T03:13:14.654Z,14.64
2022-09-13T03:15:59.906Z,14.72
2022-09-13T03:18:50.113Z,14.80
2022-09-13T03:21:37.158Z,14.88
2022-09-13T03:24:17.227Z,14.80
2022-09-13T03:26:56.416Z,14.93
2022-09-13T03:29:33.779Z,14.99
2022-09-13T03:32:20.786Z,15.03
2022-09-13T03:34:57.272Z,15.08
2022-09-13T03:37:34.131Z,15.16
2022-09-13T03:40:10.009Z,15.06
2022-09-13T03:42:44.718Z,15.13
2022-09-13T03:45:17.602Z,15.25
2022-09-13T03:47:48.199Z,15.06
2022-09-13T03:50:24.613Z,15.20
2022-09-13T03:52:59.953Z,15.21
2022-09-13T03:55:29.441Z,15.30
2022-09-13T03:57:57.473Z,15.35
2022-09-13T04:00:26.033Z,15.27
2022-09-13T04:02:55.709Z,15.24
2022-09-13T04:05:23.899Z,15.12
2022-09-13T04:07:54.153Z,15.35
2022-09-13T04:10:24.419Z,15.42
2022-09-13T04:12:56.798Z,15.24
2022-09-13T04:15:25.702Z,15.28
2022-09-13T04:17:54.441Z,15.25
2022-09-13T04:20:22.793Z,15.30
2022-09-13T04:22:59.178Z,15.19
2022-09-13T04:25:29.502Z,15.28
2022-09-13T04:28:00.551Z,15.21
2022-09-13T04:30:29.926Z,15.21
2022-09-13T04:32:59.754Z,15.08
2022-09-13T04:35:29.102Z,15.11
2022-09-13T04:37:59.303Z,15.01
2022-09-13T04:40:27.990Z,14.87
2022-09-13T04:42:56.152Z,15.00
2022-09-13T04:45:24.277Z,15.09
2022-09-13T04:47:54.089Z,15.08
2022-09-13T04:50:25.218Z,15.10
2022-09-13T04:52:58.928Z,15.17
2022-09-13T04:55:29.221Z,15.23
2022-09-13T04:57:57.953Z,15.24
2022-09-13T05:00:26.524Z,15.20
2022-09-13T05:02:58.306Z,15.13
2022-09-13T05:05:29.004Z,15.32
2022-09-13T05:07:57.831Z,15.30
2022-09-13T05:10:29.361Z,15.25
2022-09-13T05:13:02.312Z,15.26
2022-09-13T05:15:30.511Z,15.34
2022-09-13T05:17:58.904Z,15.23
2022-09-13T05:20:27.251Z,15.42
2022-09-13T05:22:57.346Z,15.51
2022-09-13T05:25:26.257Z,15.56
2022-09-13T05:27:56.574Z,15.51
2022-09-13T05:30:24.647Z,15.52
2022-09-13T05:32:53.020Z,15.59
2022-09-13T05:35:21.249Z,15.61
2022-09-13T05:37:52.072Z,15.62
2022-09-13T05:40:20.734Z,15.58
2022-09-13T05:42:51.279Z,15.37
2022-09-13T05:45:21.230Z,15.45
2022-09-13T05:47:52.764Z,15.49
2022-09-13T05:50:45.092Z,15.55
2022-09-13T05:53:10.491Z,15.66
2022-09-13T05:55:38.592Z,15.77
2022-09-13T05:58:08.212Z,15.96
2022-09-13T06:00:38.303Z,16.05
2022-09-13T06:03:06.664Z,16.08
2022-09-13T06:05:35.840Z,16.03
2022-09-13T06:08:05.555Z,16.10
2022-09-13T06:10:34.227Z,16.08
2022-09-13T06:13:03.147Z,16.24
2022-09-13T06:15:31.524Z,16.31
2022-09-13T06:18:01.557Z,16.27
2022-09-13T06:20:30.016Z,16.29
2022-09-13T06:22:58.084Z,16.36
2022-09-13T06:25:26.264Z,16.49
2022-09-13T06:27:55.075Z,16.42
2022-09-13T06:30:23.728Z,16.47
2022-09-13T06:32:53.927Z,16.43
2022-09-13T06:35:25.457Z,16.59
2022-09-13T06:37:58.959Z,16.27
2022-09-13T06:40:27.602Z,16.37
2022-09-13T06:42:56.018Z,16.27
2022-09-13T06:45:26.192Z,16.18
2022-09-13T06:47:55.998Z,16.34
2022-09-13T06:50:26.274Z,16.56
2022-09-13T06:52:54.435Z,16.81
2022-09-13T06:55:22.718Z,16.80
2022-09-13T06:57:50.896Z,16.84
2022-09-13T07:00:20.381Z,16.85
2022-09-13T07:02:53.259Z,16.83
2022-09-13T07:05:21.762Z,16.83
2022-09-13T07:07:51.724Z,16.77
2022-09-13T07:10:21.319Z,16.73
2022-09-13T07:12:52.037Z,16.63
2022-09-13T07:15:20.652Z,16.66
2022-09-13T07:17:48.868Z,16.74
2022-09-13T07:20:17.670Z,16.64
2022-09-13T07:22:46.020Z,16.69
2022-09-13T07:25:16.420Z,16.62
2022-09-13T07:27:44.811Z,16.63
2022-09-13T07:30:13.847Z,16.59
2022-09-13T07:32:42.737Z,16.56
2022-09-13T07:35:11.940Z,16.44
2022-09-13T07:37:40.054Z,16.58
2022-09-13T07:40:10.900Z,16.36
2022-09-13T07:42:41.284Z,16.40
2022-09-13T07:45:12.804Z,16.45
2022-09-13T07:47:41.368Z,16.44
2022-09-13T07:50:10.794Z,16.58
2022-09-13T07:52:40.412Z,16.53
2022-09-13T07:55:09.446Z,16.27
2022-09-13T07:57:38.573Z,16.36
2022-09-13T08:00:12.687Z,16.47
2022-09-13T08:02:44.959Z,16.40
2022-09-13T08:05:14.616Z,16.53
2022-09-13T08:07:46.747Z,16.66
2022-09-13T08:10:15.514Z,16.84
2022-09-13T08:12:43.717Z,16.91
2022-09-13T08:15:14.657Z,16.90
2022-09-13T08:17:43.192Z,17.08
2022-09-13T08:20:12.378Z,17.01
2022-09-13T08:22:40.762Z,17.09
2022-09-13T08:25:09.710Z,17.16
2022-09-13T08:27:39.480Z,17.21
2022-09-13T08:30:09.716Z,17.31
2022-09-13T08:32:42.089Z,17.29
2022-09-13T08:35:10.907Z,17.50
2022-09-13T08:37:39.550Z,17.54
2022-09-13T08:40:09.167Z,17.60
2022-09-13T08:42:55.592Z,17.54
2022-09-13T08:45:24.362Z,17.71
2022-09-13T08:48:00.419Z,17.80
2022-09-13T08:50:31.929Z,17.92
2022-09-13T08:53:14.261Z,18.24
2022-09-13T08:55:51.535Z,18.22
2022-09-13T08:58:32.561Z,18.59
2022-09-13T09:01:07.619Z,18.47
2022-09-13T09:03:48.155Z,18.62
2022-09-13T09:06:18.588Z,18.60
2022-09-13T09:08:51.428Z,18.76
2022-09-13T09:11:30.444Z,19.08
2022-09-13T09:14:05.216Z,19.14
2022-09-13T09:16:41.329Z,19.14
2022-09-13T09:19:21.676Z,19.54
2022-09-13T09:21:52.520Z,19.32
2022-09-13T09:24:24.224Z,19.66
2022-09-13T09:26:52.421Z,20.09
2022-09-13T09:29:25.749Z,20.02
2022-09-13T09:32:09.571Z,20.47
2022-09-13T09:34:54.174Z,20.77
2022-09-13T09:37:24.922Z,20.66
2022-09-13T09:39:54.910Z,20.95
2022-09-13T09:42:26.555Z,21.03
2022-09-13T09:44:59.160Z,21.30
2022-09-13T09:47:30.408Z,21.18
2022-09-13T09:50:12.253Z,21.46
2022-09-13T09:52:50.990Z,21.08
2022-09-13T09:55:27.905Z,21.39
2022-09-13T09:57:59.159Z,21.37
2022-09-13T10:00:30.255Z,21.22
2022-09-13T10:03:01.401Z,21.42
2022-09-13T10:05:32.494Z,21.10
2022-09-13T10:08:03.529Z,20.62
2022-09-13T10:10:41.900Z,20.78
2022-09-13T10:13:17.389Z,20.60
2022-09-13T10:15:55.906Z,21.17
2022-09-13T10:18:43.346Z,21.87
2022-09-13T10:21:26.656Z,22.06
2022-09-13T10:24:19.288Z,21.50
2022-09-13T10:26:48.852Z,21.09
2022-09-13T10:29:20.702Z,20.78
2022-09-13T10:31:54.441Z,21.18
2022-09-13T10:34:26.851Z,22.00
2022-09-13T10:37:03.065Z,21.98
2022-09-13T10:39:33.838Z,22.43
2022-09-13T10:42:04.318Z,22.03
2022-09-13T10:44:39.089Z,22.18
2022-09-13T10:47:13.636Z,21.89
2022-09-13T10:49:48.214Z,22.99
2022-09-13T10:52:33.026Z,23.17
2022-09-13T10:55:31.406Z,23.06
2022-09-13T10:58:21.156Z,23.53
2022-09-13T11:01:41.309Z,23.70
2022-09-13T11:04:45.527Z,23.99
2022-09-13T11:07:31.590Z,24.46
2022-09-13T11:10:08.524Z,24.62
2022-09-13T11:12:43.127Z,24.95
2022-09-13T11:15:22.763Z,24.72
2022-09-13T11:18:17.910Z,24.94
2022-09-13T11:20:55.347Z,25.18
2022-09-13T11:23:50.708Z,25.00
2022-09-13T11:26:38.557Z,25.32
2022-09-13T11:29:22.633Z,25.39
2022-09-13T11:32:02.993Z,25.25
2022-09-13T11:34:43.871Z,25.28
2022-09-13T11:37:28.090Z,25.33
2022-09-13T11:40:10.932Z,24.97
2022-09-13T11:42:50.821Z,25.06
2022-09-13T11:45:28.475Z,25.05
2022-09-13T11:48:34.012Z,25.36
2022-09-13T11:51:08.712Z,25.10
2022-09-13T11:53:54.333Z,25.14
2022-09-13T11:56:29.599Z,24.94
2022-09-13T11:59:15.422Z,24.91
2022-09-13T12:01:50.269Z,24.91
2022-09-13T12:04:25.385Z,25.10
2022-09-13T12:06:58.052Z,24.92
2022-09-13T12:09:30.177Z,25.15
2022-09-13T12:12:05.648Z,25.16
2022-09-13T12:14:44.276Z,25.11
2022-09-13T12:17:25.338Z,25.44
2022-09-13T12:19:56.215Z,25.21
2022-09-13T12:22:30.643Z,25.33
2022-09-13T12:25:03.591Z,24.72
2022-09-13T12:27:40.292Z,24.96
2022-09-13T12:30:17.705Z,25.13
2022-09-13T12:32:47.672Z,24.74
2022-09-13T12:35:26.089Z,24.13
2022-09-13T12:38:27.136Z,23.90
2022-09-13T12:41:11.367Z,23.66
2022-09-13T12:44:14.843Z,23.50
2022-09-13T12:47:18.576Z,23.58
2022-09-13T12:53:18.221Z,23.25
2022-09-13T12:56:04.810Z,23.14
2022-09-13T12:58:53.678Z,23.17
2022-09-13T13:01:24.940Z,23.51
2022-09-13T13:03:57.571Z,23.57
2022-09-13T13:06:49.505Z,23.17
2022-09-13T13:09:29.044Z,23.16
2022-09-13T13:11:59.848Z,23.56
2022-09-13T13:14:48.313Z,24.16
2022-09-13T13:17:45.887Z,24.69
2022-09-13T13:21:02.933Z,25.37
2022-09-13T13:23:34.781Z,25.34
2022-09-13T13:26:10.064Z,25.87
2022-09-13T13:29:07.431Z,25.79
2022-09-13T13:31:41.105Z,25.68
2022-09-13T13:34:49.295Z,25.18
2022-09-13T13:37:32.860Z,25.23
2022-09-13T13:40:25.580Z,25.96
2022-09-13T13:43:17.269Z,25.74
2022-09-13T13:46:00.212Z,25.83
2022-09-13T13:48:40.141Z,25.68
2022-09-13T13:51:24.081Z,25.42
2022-09-13T13:53:57.200Z,25.08
2022-09-13T13:56:55.994Z,25.26
2022-09-13T13:59:28.462Z,25.27
2022-09-13T14:02:02.098Z,25.45
2022-09-13T14:04:59.933Z,25.31
2022-09-13T14:08:02.311Z,25.39
2022-09-13T14:10:44.270Z,25.54
2022-09-13T14:13:32.342Z,25.91
2022-09-13T14:16:08.591Z,26.20
2022-09-13T14:18:54.540Z,26.06
2022-09-13T14:21:25.117Z,26.57
2022-09-13T14:24:09.763Z,26.70
2022-09-13T14:26:38.355Z,26.52
2022-09-13T14:29:17.062Z,26.04
2022-09-13T14:31:48.190Z,26.07
2022-09-13T14:34:25.268Z,26.03
2022-09-13T14:36:55.983Z,26.44
2022-09-13T14:39:25.122Z,26.57
2022-09-13T14:42:00.548Z,26.80
2022-09-13T14:44:31.766Z,26.45
2022-09-13T14:47:06.858Z,26.44
2022-09-13T14:49:39.865Z,25.79
2022-09-13T14:52:12.401Z,25.89
2022-09-13T14:54:43.180Z,26.29
2022-09-13T14:57:24.274Z,26.28
2022-09-13T14:59:56.819Z,25.77
2022-09-13T15:02:28.131Z,25.85
2022-09-13T15:05:00.018Z,25.61
2022-09-13T15:07:32.004Z,25.60
2022-09-13T15:10:08.314Z,26.14
2022-09-13T15:12:37.978Z,26.34
2022-09-13T15:15:24.171Z,26.49
2022-09-13T15:17:54.207Z,26.68
2022-09-13T15:20:23.574Z,26.53
2022-09-13T15:22:53.859Z,26.78
2022-09-13T15:25:27.842Z,26.78
2022-09-13T15:27:59.026Z,26.47
2022-09-13T15:30:31.662Z,26.23
2022-09-13T15:33:16.064Z,26.17
2022-09-13T15:35:47.433Z,26.87
2022-09-13T15:38:25.064Z,27.13
2022-09-13T15:41:04.775Z,27.28
2022-09-13T15:43:38.764Z,26.99
2022-09-13T15:46:11.653Z,27.06
2022-09-13T15:48:40.948Z,27.32
2022-09-13T15:51:12.097Z,27.02
2022-09-13T15:53:44.135Z,27.14
2022-09-13T15:56:16.962Z,26.69
2022-09-13T15:58:48.051Z,26.42
2022-09-13T16:01:20.349Z,25.97
2022-09-13T16:03:48.949Z,25.58
2022-09-13T16:06:21.498Z,25.48
2022-09-13T16:08:53.170Z,25.14
2022-09-13T16:11:21.530Z,25.20
2022-09-13T16:13:49.982Z,25.02
2022-09-13T16:16:21.373Z,24.97
2022-09-13T16:18:49.650Z,24.66
2022-09-13T16:21:18.069Z,24.57
2022-09-13T16:23:46.613Z,24.19
2022-09-13T16:26:15.383Z,24.36
2022-09-13T16:28:43.815Z,24.05
2022-09-13T16:31:12.291Z,23.87
2022-09-13T16:33:44.522Z,23.90
2022-09-13T16:36:13.848Z,23.64
2022-09-13T16:38:43.054Z,23.64
2022-09-13T16:41:13.430Z,23.58
2022-09-13T16:43:42.094Z,23.52
2022-09-13T16:46:13.917Z,23.51
2022-09-13T16:48:43.937Z,23.18
2022-09-13T16:51:14.432Z,23.23
2022-09-13T16:53:44.295Z,22.87
2022-09-13T16:56:14.343Z,22.92
2022-09-13T16:58:47.265Z,23.02
2022-09-13T17:01:19.141Z,22.81
2022-09-13T17:03:54.044Z,22.74
2022-09-13T17:06:24.252Z,22.69
2022-09-13T17:08:58.054Z,22.73
2022-09-13T17:11:29.620Z,22.50
2022-09-13T17:13:58.046Z,22.30
2022-09-13T17:16:28.889Z,22.06
2022-09-13T17:19:01.098Z,22.33
2022-09-13T17:21:31.214Z,22.20
2022-09-13T17:26:28.946Z,22.26
2022-09-13T17:28:57.149Z,22.32
2022-09-13T17:31:28.392Z,22.28
2022-09-13T17:33:59.026Z,22.19
2022-09-13T17:36:27.375Z,21.82
2022-09-13T17:38:57.601Z,22.02
2022-09-13T17:41:27.040Z,22.16
2022-09-13T17:43:55.855Z,22.21
2022-09-13T17:46:28.024Z,22.22
2022-09-13T17:48:59.677Z,22.10
2022-09-13T17:51:30.327Z,22.15
2022-09-13T17:54:00.461Z,22.10
2022-09-13T17:56:30.703Z,22.08
2022-09-13T17:59:09.690Z,21.75
2022-09-13T18:01:40.389Z,21.82
2022-09-13T18:04:11.503Z,21.96
2022-09-13T18:06:44.609Z,21.83
2022-09-13T18:09:17.211Z,21.61
2022-09-13T18:11:47.701Z,21.70
2022-09-13T18:14:18.890Z,21.63
2022-09-13T18:16:50.143Z,21.56
2022-09-13T18:19:33.918Z,21.35
2022-09-13T18:22:08.859Z,21.21
2022-09-13T18:24:37.502Z,21.06
2022-09-13T18:27:06.803Z,20.94
2022-09-13T18:29:35.225Z,20.95
2022-09-13T18:32:04.087Z,20.86
2022-09-13T18:34:33.840Z,20.81
2022-09-13T18:37:02.239Z,20.55
2022-09-13T18:39:30.449Z,20.66
2022-09-13T18:41:58.757Z,20.60
2022-09-13T18:44:30.405Z,20.40
2022-09-13T18:47:00.816Z,20.46
2022-09-13T18:49:29.851Z,20.50
2022-09-13T18:52:00.950Z,20.57
2022-09-13T18:54:30.199Z,20.47
2022-09-13T18:56:58.659Z,20.35
2022-09-13T18:59:28.229Z,20.47
2022-09-13T19:01:56.826Z,20.46
2022-09-13T19:04:25.148Z,20.39
2022-09-13T19:06:55.893Z,20.37
2022-09-13T19:09:25.852Z,20.28
2022-09-13T19:11:55.360Z,20.24
2022-09-13T19:14:25.638Z,20.04
2022-09-13T19:16:55.974Z,19.96
2022-09-13T19:19:24.891Z,19.98
2022-09-13T19:21:53.322Z,19.95
2022-09-13T19:24:22.037Z,19.94
2022-09-13T19:26:53.274Z,19.94
2022-09-13T19:29:23.280Z,20.00
2022-09-13T19:31:54.240Z,20.06
2022-09-13T19:34:23.901Z,20.13
2022-09-13T19:36:58.178Z,20.09
2022-09-13T19:39:29.833Z,20.12
2022-09-13T19:42:00.954Z,20.17
2022-09-13T19:44:29.076Z,20.21
2022-09-13T19:47:40.100Z,20.18
2022-09-13T19:49:46.413Z,20.15
2022-09-13T19:52:14.876Z,19.99
2022-09-13T19:54:46.291Z,20.00
2022-09-13T19:57:16.141Z,19.87
2022-09-13T19:59:44.364Z,19.83
2022-09-13T20:02:12.822Z,19.77
2022-09-13T20:04:41.364Z,19.80
2022-09-13T20:07:12.382Z,19.71
2022-09-13T20:09:42.472Z,19.82
2022-09-13T20:12:12.789Z,19.85
2022-09-13T20:14:42.718Z,19.95
2022-09-13T20:17:11.066Z,19.92
2022-09-13T20:19:43.815Z,19.98
2022-09-13T20:22:16.182Z,19.96
2022-09-13T20:24:47.503Z,19.95
2022-09-13T20:27:15.955Z,19.94
2022-09-13T20:29:47.163Z,19.95
2022-09-13T20:32:16.369Z,19.87
2022-09-13T20:34:44.967Z,19.81
2022-09-13T20:37:13.430Z,19.82
2022-09-13T20:39:41.991Z,19.86
2022-09-13T20:42:11.472Z,19.59
2022-09-13T20:44:42.291Z,19.24
2022-09-13T20:47:11.758Z,19.50
2022-09-13T20:49:39.831Z,19.64
2022-09-13T20:52:08.272Z,19.78
2022-09-13T20:54:37.766Z,19.76
2022-09-13T20:57:06.226Z,19.24
2022-09-13T20:59:34.782Z,19.40
2022-09-13T21:02:04.439Z,19.31
2022-09-13T21:04:34.428Z,19.37
2022-09-13T21:07:22.366Z,19.48
2022-09-13T21:09:50.667Z,19.63
2022-09-13T21:12:19.129Z,19.61
2022-09-13T21:14:47.829Z,19.72
2022-09-13T21:17:16.285Z,19.58
2022-09-13T21:19:46.199Z,19.50
2022-09-13T21:22:15.944Z,19.53
2022-09-13T21:24:44.932Z,19.48
2022-09-13T21:27:13.263Z,19.37
2022-09-13T21:29:42.132Z,19.38
2022-09-13T21:32:11.215Z,19.31
2022-09-13T21:34:39.985Z,19.37
2022-09-13T21:37:10.166Z,19.36
2022-09-13T21:39:38.571Z,19.37
2022-09-13T21:42:07.350Z,19.44
2022-09-13T21:44:36.288Z,19.48
2022-09-13T21:47:05.919Z,19.52
2022-09-13T21:49:35.306Z,19.61
2022-09-13T21:52:03.990Z,19.32
2022-09-13T21:54:34.240Z,19.50
2022-09-13T21:57:02.627Z,19.37
2022-09-13T21:59:31.513Z,19.35
2022-09-13T22:02:00.414Z,19.31
2022-09-13T22:04:34.687Z,19.35
2022-09-13T22:07:02.856Z,19.43
2022-09-13T22:09:31.856Z,19.43
2022-09-13T22:12:02.268Z,19.20
2022-09-13T22:14:30.428Z,19.22
2022-09-13T22:17:00.980Z,19.31
2022-09-13T22:19:31.774Z,19.28
2022-09-13T22:22:01.511Z,19.35
2022-09-13T22:24:32.215Z,19.36
2022-09-13T22:27:02.435Z,19.30
2022-09-13T22:29:30.775Z,19.32
2022-09-13T22:32:00.546Z,19.32
2022-09-13T22:34:31.207Z,19.28
2022-09-13T22:37:00.788Z,19.27
2022-09-13T22:39:29.539Z,19.17
2022-09-13T22:41:59.595Z,19.25
2022-09-13T22:44:36.977Z,19.28
2022-09-13T22:47:05.952Z,19.29
2022-09-13T22:49:34.063Z,19.31
2022-09-13T22:52:03.254Z,19.30
2022-09-13T22:54:31.740Z,19.44
2022-09-13T22:57:01.035Z,19.50
2022-09-13T22:59:31.774Z,19.58
2022-09-13T23:02:03.034Z,19.38
2022-09-13T23:04:31.332Z,19.55
2022-09-13T23:07:00.025Z,19.33
2022-09-13T23:09:31.487Z,19.28
2022-09-13T23:11:59.945Z,19.08
2022-09-13T23:14:28.227Z,19.04
2022-09-13T23:16:59.846Z,19.14
2022-09-13T23:19:28.401Z,19.16
2022-09-13T23:21:56.795Z,19.02
2022-09-13T23:24:25.047Z,19.02
2022-09-13T23:26:57.620Z,18.94
2022-09-13T23:29:29.049Z,19.06
2022-09-13T23:32:01.301Z,18.97
2022-09-13T23:34:29.691Z,18.69
2022-09-13T23:36:59.736Z,18.77
2022-09-13T23:39:29.688Z,18.81
2022-09-13T23:41:59.106Z,18.89
2022-09-13T23:44:29.216Z,18.92
2022-09-13T23:47:00.916Z,18.81
2022-09-13T23:49:30.732Z,18.90
2022-09-13T23:51:59.689Z,18.91
2022-09-13T23:54:30.864Z,18.94
2022-09-13T23:56:59.229Z,19.03
2022-09-13T23:59:27.707Z,18.51
